עמוד ראשי
METAR-TAF:

METAR-TAF

שדות תעופה :

Vavaʻu, טונגה

קו רוחב: 18-35-07S, קו אורך: 173-57-42W, גובה: 72מטר

תצפית מזג אוויר נוכחית

הדו"ח נערך לפני 4 שעות ו 16דקות, בשעה 06:00 UTC
רוח 8קשר מכיוון מזרח/צפון-מזרח
טמפרטורת 25 צלסיוס
לחות 94%
לחץ 1014 hPa
ראות 10 קילומטר או יותר
מעט עננים בגובה 900רגל
עננים פזורים בגובה 1700רגל
עננים בינוניים בגובה 11000רגל

METAR: NFTV 150600Z 07008KT 9999 FEW009 SCT017 BKN110 25/24 Q1014

זמן: 23:16 (10:16 UTC)

תחזית

הדו"ח נערך לפני 5 שעות ו 9דקות, בשעה 05:07 UTC
תחזית בתוקף מ 15 ב 06 UTC עד 16 ב 06 UTC
רוח 6קשר מכיוון צפון
ראות 10 קילומטר או יותר
מעט עננים בגובה 1000רגל
עננים פזורים בגובה 1700רגל
עננים בינוניים בגובה 10000רגל
זמנית מ -
15 ב 06 UTC עד 15 ב 08 UTC
ראות: 5000מטר
עננים בינוניים בגובה 1500רגל
עננים פזורים בגובה 1600רגל , קומולונימבוס.
סופת רעמים, גשם,

TAF: NFTV 150507Z 1506/1606 01006KT 9999 FEW010 SCT017 BKN100 TEMPO 1506/1508 5000 TSRA BKN015 SCT016CB

תצפיות ותחזיות מזג אוויר לגבי יותר מ- 4,000 שדות תעופה ברחבי העולם. דוחות METAR ו- TAF.

התחנות הזמינות מסומנות בנקודות צהובות ואדומות על גבי המפה.

העבר את העכבר לנקודה הצבעונית על מנת לראות את שם התחנה.

לאחר מכן, לחץ כדי לראות את תוכן ואת תחזיות מזג האוויר.

כדי לשנות את המפה: לחץ על הכפתורים הירוקים עם הפלוס השחור כדי להתקרב; על הכפתור הירוק עם המקף כדי להתרחק; או בחיצים הירוקים למפות סמוכות.


METAR-TAF: